Time;durP1;ratioP1;P1;durP2;ratioP2;P2;SDS_P1;SDS_P2;PMS_P1;PMS_P2;Temp;Humidity;BMP_temperature;BMP_pressure;BME280_temperature;BME280_humidity;BME280_pressure;Samples;Min_cycle;Max_cycle;Signal;HPM_P1;HPM_P2
2021/06/15 00:02:15;;;;;;;10.65;5.85;;;;;;;17.76;79.80;99397.70;1683104;85;21044;-74
2021/06/15 00:04:47;;;;;;;10.25;5.90;;;;;;;17.72;80.11;99398.25;1673686;84;21059;-74
2021/06/15 00:07:14;;;;;;;11.90;5.33;;;;;;;17.73;80.18;99392.06;1682990;84;21142;-75
2021/06/15 00:09:46;;;;;;;9.85;5.83;;;;;;;17.73;80.09;99398.45;1619107;88;21814;-74
2021/06/15 00:12:14;;;;;;;11.45;5.87;;;;;;;17.73;80.02;99401.23;1683727;84;21008;-74
2021/06/15 00:14:47;;;;;;;13.22;6.00;;;;;;;17.72;80.16;99398.25;1673315;84;21084;-73
2021/06/15 00:17:17;;;;;;;9.93;6.30;;;;;;;17.74;80.02;99398.66;1684059;84;20981;-74
2021/06/15 00:19:49;;;;;;;14.18;6.03;;;;;;;17.72;79.89;99398.83;1664159;84;21548;-73
2021/06/15 00:22:23;;;;;;;10.90;5.72;;;;;;;17.69;80.09;99398.97;1680300;84;21035;-74
2021/06/15 00:24:51;;;;;;;7.10;5.12;;;;;;;17.69;80.18;99400.36;1683492;84;21457;-73
2021/06/15 00:27:20;;;;;;;9.00;5.20;;;;;;;17.69;80.28;99397.58;1682974;84;21024;-72
2021/06/15 00:29:48;;;;;;;8.23;5.45;;;;;;;17.68;80.42;99392.38;1683188;84;21111;-74
2021/06/15 00:32:20;;;;;;;10.70;5.45;;;;;;;17.69;80.19;99392.61;1650971;86;21044;-74
2021/06/15 00:34:51;;;;;;;7.00;5.85;;;;;;;17.69;79.89;99393.39;1671705;85;21083;-73
2021/06/15 00:37:22;;;;;;;7.80;5.75;;;;;;;17.68;79.86;99395.16;1673969;85;20993;-74
2021/06/15 00:39:51;;;;;;;12.95;5.80;;;;;;;17.66;79.99;99393.36;1678796;83;21565;-72
2021/06/15 00:42:22;;;;;;;7.15;5.42;;;;;;;17.66;79.94;99398.32;1703720;84;21091;-74
2021/06/15 00:44:53;;;;;;;9.15;5.47;;;;;;;17.63;79.80;99390.72;1703230;83;21038;-73
2021/06/15 00:47:24;;;;;;;7.92;5.05;;;;;;;17.48;80.42;99386.30;1679385;83;21141;-74
2021/06/15 00:49:54;;;;;;;10.15;5.28;;;;;;;17.40;81.15;99382.56;1702530;83;21030;-73
2021/06/15 00:52:23;;;;;;;9.38;5.33;;;;;;;17.36;81.56;99376.14;1679657;84;21276;-74
2021/06/15 00:55:00;;;;;;;13.98;5.12;;;;;;;17.38;81.45;99384.91;1691762;83;21063;-74
2021/06/15 00:57:33;;;;;;;8.30;4.67;;;;;;;17.40;81.07;99376.99;1677003;83;21065;-73
2021/06/15 01:00:03;;;;;;;14.05;6.17;;;;;;;17.42;80.90;99375.84;1712052;83;21196;-72
2021/06/15 01:02:31;;;;;;;8.05;4.62;;;;;;;17.44;80.92;99378.45;1713287;83;21030;-72
2021/06/15 01:05:01;;;;;;;9.33;4.97;;;;;;;17.45;80.99;99375.87;1713324;83;21065;-73
2021/06/15 01:07:32;;;;;;;12.35;5.47;;;;;;;17.46;80.93;99372.52;1679930;84;21055;-74
2021/06/15 01:10:12;;;;;;;10.20;5.12;;;;;;;17.47;80.76;99376.31;1713120;83;21036;-74
2021/06/15 01:13:13;;;;;;;7.55;4.67;;;;;;;17.46;80.63;99373.33;1711481;82;21488;-77
2021/06/15 01:15:46;;;;;;;12.33;6.50;;;;;;;17.44;80.48;99374.86;1692727;83;20990;-75
2021/06/15 01:18:15;;;;;;;13.70;6.28;;;;;;;17.40;80.29;99378.38;1713530;83;21079;-75
2021/06/15 01:20:56;;;;;;;13.20;5.50;;;;;;;17.37;80.22;99379.12;1685993;83;21028;-73
2021/06/15 01:23:52;;;;;;;12.37;5.65;;;;;;;17.34;80.28;99379.06;1704301;83;21084;-75
2021/06/15 01:27:11;;;;;;;16.42;5.37;;;;;;;17.33;80.52;99375.47;1713049;83;21076;-74
2021/06/15 01:29:40;;;;;;;12.73;5.50;;;;;;;17.32;80.56;99369.69;1699769;83;21130;-73
2021/06/15 01:32:14;;;;;;;13.28;6.58;;;;;;;17.32;80.64;99371.66;1678735;84;21025;-75
2021/06/15 01:34:51;;;;;;;9.18;5.45;;;;;;;17.30;80.57;99372.03;1669325;85;21100;-73
2021/06/15 01:37:32;;;;;;;22.22;5.62;;;;;;;17.31;80.61;99379.81;1688380;83;21163;-74
2021/06/15 01:40:13;;;;;;;9.38;5.47;;;;;;;17.29;80.81;99380.18;1707377;83;21122;-73
2021/06/15 01:42:56;;;;;;;9.70;6.20;;;;;;;17.29;80.77;99380.18;1682759;84;21006;-74
2021/06/15 01:45:41;;;;;;;13.80;6.92;;;;;;;17.30;80.60;99386.56;1652829;85;21039;-74
2021/06/15 01:48:41;;;;;;;9.58;6.65;;;;;;;17.28;80.58;99382.15;1669112;86;21029;-75
2021/06/15 01:51:11;;;;;;;14.93;6.33;;;;;;;17.28;80.55;99386.33;1704205;83;21467;-74
2021/06/15 01:53:49;;;;;;;8.80;6.03;;;;;;;17.26;80.47;99376.14;1653266;85;21100;-76
2021/06/15 01:56:17;;;;;;;9.93;6.30;;;;;;;17.26;80.47;99385.09;1659794;84;21020;-74
2021/06/15 02:09:23;;;;;;;10.00;6.45;;;;;;;17.24;80.62;99383.27;1672057;85;21011;-76
2021/06/15 02:11:52;;;;;;;11.38;6.42;;;;;;;17.23;80.86;99381.06;1659469;85;21683;-74
2021/06/15 02:14:23;;;;;;;10.50;6.37;;;;;;;17.22;81.06;99381.43;1714183;82;21009;-74
2021/06/15 02:16:59;;;;;;;10.05;6.33;;;;;;;17.22;81.20;99383.63;1705314;82;21057;-73
2021/06/15 02:19:41;;;;;;;15.25;6.42;;;;;;;17.23;81.36;99392.80;1708081;82;20986;-77
2021/06/15 02:22:16;;;;;;;9.00;6.47;;;;;;;17.24;81.23;99386.86;1643881;86;21565;-74
2021/06/15 02:24:55;;;;;;;15.30;7.37;;;;;;;17.24;81.27;99389.64;1685287;82;21036;-76
2021/06/15 02:27:24;;;;;;;10.15;7.35;;;;;;;17.25;81.18;99387.07;1706565;82;21005;-75
2021/06/15 02:29:56;;;;;;;13.90;7.65;;;;;;;17.22;81.41;99383.63;1691763;83;21607;-74
2021/06/15 02:32:26;;;;;;;14.05;7.95;;;;;;;17.21;81.61;99386.22;1692199;83;21103;-73
2021/06/15 02:34:57;;;;;;;13.50;6.80;;;;;;;17.15;81.92;99391.27;1710637;82;21064;-73
2021/06/15 02:37:29;;;;;;;12.00;7.00;;;;;;;17.01;82.24;99389.55;1714454;82;21002;-73
2021/06/15 02:39:57;;;;;;;11.65;6.42;;;;;;;16.99;82.82;99391.91;1696268;82;21509;-76
2021/06/15 02:42:24;;;;;;;16.42;6.95;;;;;;;17.03;82.79;99399.16;1659799;82;21462;-74
2021/06/15 02:44:56;;;;;;;12.15;7.62;;;;;;;17.09;82.64;99397.47;1720166;82;21020;-75
2021/06/15 02:47:27;;;;;;;12.55;7.72;;;;;;;17.15;82.50;99404.37;1690876;82;21045;-76
2021/06/15 02:49:58;;;;;;;15.03;7.78;;;;;;;17.22;82.41;99407.88;1634739;85;21012;-74
2021/06/15 02:52:50;;;;;;;15.25;7.25;;;;;;;17.27;82.35;99404.22;1712922;82;21065;-74
2021/06/15 02:55:38;;;;;;;10.25;8.13;;;;;;;17.33;82.29;99399.13;1684402;82;21500;-74
2021/06/15 02:58:08;;;;;;;14.10;8.03;;;;;;;17.38;82.26;99403.61;1684960;83;21047;-75
2021/06/15 03:00:37;;;;;;;15.40;8.50;;;;;;;17.40;82.36;99400.66;1691874;84;21339;-74
2021/06/15 03:03:05;;;;;;;13.70;8.33;;;;;;;17.46;82.38;99401.75;1653054;86;21077;-74
2021/06/15 03:05:33;;;;;;;13.83;8.23;;;;;;;17.51;82.31;99400.05;1663425;85;21039;-74
2021/06/15 03:08:04;;;;;;;13.32;8.18;;;;;;;17.54;82.34;99400.70;1640646;85;21135;-75
2021/06/15 03:10:39;;;;;;;12.63;7.78;;;;;;;17.56;82.38;99396.97;1650065;84;21414;-75
2021/06/15 03:13:22;;;;;;;15.08;7.53;;;;;;;17.62;82.42;99401.66;1650683;85;21137;-75
2021/06/15 03:16:01;;;;;;;12.58;7.62;;;;;;;17.65;82.42;99399.52;1669801;85;20993;-75
2021/06/15 03:18:53;;;;;;;8.58;6.65;;;;;;;17.72;82.51;99401.03;1671918;85;21024;-75
2021/06/15 03:21:24;;;;;;;10.60;7.08;;;;;;;17.76;82.70;99399.67;1649258;85;21055;-74
2021/06/15 03:23:57;;;;;;;15.28;7.03;;;;;;;17.83;82.83;99401.20;1672120;85;21536;-75
2021/06/15 03:26:31;;;;;;;8.33;6.03;;;;;;;17.91;82.94;99403.53;1669974;85;21276;-76
2021/06/15 03:29:01;;;;;;;10.13;6.22;;;;;;;17.99;83.10;99402.46;1654565;85;21083;-74
2021/06/15 03:31:32;;;;;;;13.50;7.15;;;;;;;18.05;83.74;99406.33;1667964;85;21167;-75
2021/06/15 03:34:00;;;;;;;11.30;7.35;;;;;;;18.11;84.44;99402.03;1671173;84;21067;-75
2021/06/15 03:36:34;;;;;;;11.12;7.10;;;;;;;18.18;84.89;99402.18;1641652;85;21064;-75
2021/06/15 03:39:04;;;;;;;13.62;7.00;;;;;;;18.27;85.09;99403.89;1653406;84;21106;-74
2021/06/15 03:41:33;;;;;;;12.47;7.42;;;;;;;18.38;85.23;99403.45;1671290;84;21020;-75
2021/06/15 03:44:03;;;;;;;11.43;7.75;;;;;;;18.48;85.22;99404.78;1643414;85;21635;-72
2021/06/15 03:46:35;;;;;;;9.50;6.97;;;;;;;18.57;85.26;99408.11;1671591;85;21041;-75
2021/06/15 03:49:08;;;;;;;12.33;7.55;;;;;;;18.67;85.24;99405.24;1673596;85;21057;-74
2021/06/15 03:51:41;;;;;;;;;;;;;;;18.78;85.04;99406.76;1673793;85;21529;-75
2021/06/15 03:54:12;;;;;;;14.47;7.17;;;;;;;18.89;84.89;99407.48;1670275;84;20232;-74
2021/06/15 03:56:43;;;;;;;12.55;6.72;;;;;;;18.95;84.89;99408.16;1672658;84;21024;-74
2021/06/15 03:59:18;;;;;;;19.17;7.25;;;;;;;19.04;84.89;99414.07;1663684;85;21100;-73
2021/06/15 04:01:47;;;;;;;14.83;6.15;;;;;;;19.14;84.67;99412.00;1663742;85;21001;-75
2021/06/15 04:04:18;;;;;;;10.50;6.05;;;;;;;19.25;84.07;99412.13;1672552;85;21759;-73
2021/06/15 04:06:51;;;;;;;12.03;7.15;;;;;;;19.34;84.01;99411.22;1670361;85;21047;-73
2021/06/15 04:09:21;;;;;;;9.65;6.92;;;;;;;19.43;83.48;99416.50;1670655;84;21045;-73
2021/06/15 04:11:53;;;;;;;10.25;6.50;;;;;;;19.54;83.07;99415.81;1720878;81;20985;-74
2021/06/15 04:14:20;;;;;;;10.63;6.75;;;;;;;19.66;82.70;99416.13;1739995;81;21055;-72
2021/06/15 04:16:47;;;;;;;8.50;6.92;;;;;;;19.75;82.27;99418.02;1718235;81;21126;-71
2021/06/15 04:22:32;;;;;;;11.53;6.33;;;;;;;19.92;81.94;99419.95;1735223;81;21046;-74
2021/06/15 04:25:05;;;;;;;11.80;6.10;;;;;;;20.00;81.34;99425.80;1718203;81;21496;-73
2021/06/15 04:27:33;;;;;;;12.63;5.83;;;;;;;20.08;80.83;99423.09;1730894;81;20984;-74
2021/06/15 04:30:01;;;;;;;15.38;5.62;;;;;;;20.16;80.18;99428.34;1719240;81;21126;-72
2021/06/15 04:32:56;;;;;;;13.90;6.08;;;;;;;20.25;79.45;99426.61;1682533;83;21024;-71
2021/06/15 04:35:26;;;;;;;10.32;5.35;;;;;;;20.36;79.11;99424.48;1727223;82;21433;-72
2021/06/15 04:37:53;;;;;;;7.58;4.80;;;;;;;20.47;78.50;99423.16;1724870;82;21086;-73
2021/06/15 04:40:31;;;;;;;6.40;5.17;;;;;;;20.55;77.97;99417.81;1687219;82;21059;-72
2021/06/15 04:43:18;;;;;;;8.00;4.60;;;;;;;20.64;77.13;99418.24;1726873;82;21809;-73
2021/06/15 04:45:45;;;;;;;5.50;4.12;;;;;;;20.74;76.89;99423.71;1728418;82;21477;-72
2021/06/15 04:48:32;;;;;;;5.70;3.98;;;;;;;20.82;75.80;99420.34;1703186;83;21115;-73
2021/06/15 04:51:03;;;;;;;8.63;4.58;;;;;;;20.94;74.67;99422.61;1675976;85;21551;-71
2021/06/15 04:56:20;;;;;;;5.28;4.67;;;;;;;21.07;73.00;99418.88;1670960;85;21065;-72
2021/06/15 04:58:48;;;;;;;6.97;4.42;;;;;;;21.15;72.70;99419.88;1733504;81;21019;-72
2021/06/15 05:01:17;;;;;;;12.00;4.40;;;;;;;21.22;72.16;99416.92;1727001;81;20995;-73
2021/06/15 05:03:44;;;;;;;6.60;4.12;;;;;;;21.28;71.97;99421.73;1736940;81;21558;-73
2021/06/15 05:06:15;;;;;;;8.43;3.92;;;;;;;21.35;71.45;99416.75;1724553;81;21031;-72
2021/06/15 05:08:57;;;;;;;4.75;3.92;;;;;;;21.39;69.66;99406.34;1736652;81;21590;-71
2021/06/15 05:11:30;;;;;;;8.80;4.70;;;;;;;21.43;69.58;99421.76;1726895;81;21075;-71
2021/06/15 05:13:57;;;;;;;10.70;4.35;;;;;;;21.48;69.49;99417.16;1731932;82;21023;-75
2021/06/15 05:16:26;;;;;;;5.03;3.85;;;;;;;21.55;69.24;99423.97;1662346;85;21654;-73
2021/06/15 05:18:53;;;;;;;9.23;4.40;;;;;;;21.58;68.74;99419.77;1668718;85;21127;-74
2021/06/15 05:21:25;;;;;;;11.95;4.55;;;;;;;21.64;68.24;99422.41;1667772;85;21219;-74
2021/06/15 05:24:01;;;;;;;;;;;;;;;21.67;67.20;99423.59;1661984;85;21548;-75
2021/06/15 05:26:35;;;;;;;7.08;4.42;;;;;;;21.71;67.08;99425.00;1667882;85;20674;-74
2021/06/15 05:29:02;;;;;;;;;;;;;;;21.73;67.16;99419.80;1661376;84;21032;-74
2021/06/15 05:31:30;;;;;;;14.50;4.40;;;;;;;21.77;67.01;99424.20;1682745;84;20167;-75
2021/06/15 05:34:01;;;;;;;18.10;5.17;;;;;;;21.83;67.02;99423.84;1689016;84;21114;-75
2021/06/15 05:36:27;;;;;;;4.83;3.87;;;;;;;21.89;66.82;99423.04;1686101;84;21067;-74
2021/06/15 05:39:00;;;;;;;6.03;4.10;;;;;;;21.97;66.66;99425.85;1685308;84;21035;-75
2021/06/15 05:41:26;;;;;;;8.25;5.00;;;;;;;21.99;66.03;99421.43;1685472;82;21012;-74
2021/06/15 05:43:55;;;;;;;11.08;4.17;;;;;;;22.06;65.95;99426.86;1715361;82;21039;-73
2021/06/15 05:46:26;;;;;;;5.17;3.30;;;;;;;22.10;65.71;99417.82;1703854;82;20968;-73
2021/06/15 05:49:07;;;;;;;7.30;3.80;;;;;;;22.14;65.42;99418.63;1699237;82;21095;-75
2021/06/15 05:51:34;;;;;;;5.83;3.37;;;;;;;22.22;64.89;99424.44;1723537;82;21019;-74
2021/06/15 05:54:03;;;;;;;11.22;4.22;;;;;;;22.25;64.05;99427.83;1716107;82;21071;-73
2021/06/15 05:56:35;;;;;;;8.80;3.62;;;;;;;22.31;64.24;99428.23;1691700;83;21665;-74
2021/06/15 05:59:07;;;;;;;12.23;3.50;;;;;;;22.38;63.75;99428.83;1716117;83;21530;-74
2021/06/15 06:01:41;;;;;;;7.28;3.67;;;;;;;22.44;63.77;99424.98;1676033;85;21103;-72
2021/06/15 06:04:20;;;;;;;7.03;3.95;;;;;;;22.51;63.25;99423.57;1671004;85;21019;-73
2021/06/15 06:09:37;;;;;;;15.20;4.50;;;;;;;22.58;63.17;99418.54;1661710;86;21096;-71
2021/06/15 06:12:09;;;;;;;21.27;4.65;;;;;;;22.65;63.53;99419.16;1651565;85;22061;-74
2021/06/15 06:14:38;;;;;;;12.53;4.55;;;;;;;22.67;63.53;99420.95;1713726;82;20985;-73
2021/06/15 06:17:08;;;;;;;5.72;3.85;;;;;;;22.65;63.79;99421.95;1717267;82;21001;-73
2021/06/15 06:19:41;;;;;;;;;;;;;;;22.67;63.58;99421.73;1721316;82;21541;-74
2021/06/15 06:22:08;;;;;;;8.50;3.98;;;;;;;22.75;63.66;99419.72;1682793;82;20165;-73
2021/06/15 06:24:37;;;;;;;9.28;4.20;;;;;;;22.82;63.42;99412.69;1696332;82;21099;-73
2021/06/15 06:27:05;;;;;;;7.22;3.85;;;;;;;22.91;63.49;99419.88;1720393;82;21505;-73
2021/06/15 06:29:36;;;;;;;4.80;4.33;;;;;;;22.98;63.15;99424.03;1718405;82;21016;-72
2021/06/15 06:32:06;;;;;;;12.68;4.22;;;;;;;23.04;62.65;99421.61;1725478;81;21016;-73
2021/06/15 06:34:40;;;;;;;4.70;4.17;;;;;;;23.06;62.90;99423.41;1666367;85;21036;-74
2021/06/15 06:37:12;;;;;;;5.87;4.87;;;;;;;23.10;63.09;99420.77;1663557;85;21540;-73
2021/06/15 06:39:41;;;;;;;11.35;4.65;;;;;;;23.17;63.05;99421.94;1657955;85;21016;-72
2021/06/15 06:42:08;;;;;;;11.97;4.87;;;;;;;23.15;63.22;99420.94;1664872;85;21000;-75
2021/06/15 06:44:40;;;;;;;9.60;4.28;;;;;;;23.16;64.01;99425.97;1659280;85;21143;-74
2021/06/15 06:47:07;;;;;;;21.68;5.25;;;;;;;23.23;63.64;99425.94;1657978;85;21076;-75
2021/06/15 06:49:44;;;;;;;6.90;4.80;;;;;;;23.33;63.90;99427.89;1669307;85;21854;-75
2021/06/15 06:52:12;;;;;;;15.78;4.53;;;;;;;23.43;63.64;99419.81;1672864;85;21043;-74
2021/06/15 06:54:39;;;;;;;5.95;4.55;;;;;;;23.50;63.29;99423.19;1673371;85;21170;-74
2021/06/15 06:57:10;;;;;;;5.80;4.30;;;;;;;23.61;62.65;99419.69;1673337;85;21032;-75
2021/06/15 06:59:36;;;;;;;6.30;5.22;;;;;;;23.66;62.37;99416.44;1662611;84;21036;-74
2021/06/15 07:02:12;;;;;;;7.55;4.72;;;;;;;23.74;62.25;99413.58;1660233;85;21496;-75
2021/06/15 07:04:41;;;;;;;9.05;4.37;;;;;;;23.76;61.93;99417.59;1646266;87;21091;-72
2021/06/15 07:07:09;;;;;;;10.15;4.80;;;;;;;23.80;61.84;99414.13;1645933;87;21158;-72
2021/06/15 07:09:36;;;;;;;8.75;4.80;;;;;;;23.87;61.67;99407.64;1658955;85;21060;-75
2021/06/15 07:12:28;;;;;;;15.75;5.35;;;;;;;23.96;61.72;99409.98;1666716;82;21076;-73
2021/06/15 07:14:58;;;;;;;10.08;5.17;;;;;;;23.97;61.48;99408.77;1681838;83;21311;-71
2021/06/15 07:17:31;;;;;;;9.15;5.15;;;;;;;23.97;62.23;99403.77;1674387;84;21508;-74
2021/06/15 07:19:59;;;;;;;10.03;4.75;;;;;;;24.06;62.05;99401.25;1670445;85;21015;-73
2021/06/15 07:22:38;;;;;;;8.43;4.87;;;;;;;24.15;62.18;99397.36;1645041;85;21077;-75
2021/06/15 07:25:15;;;;;;;11.35;5.62;;;;;;;24.24;61.63;99403.14;1658245;85;21530;-73
2021/06/15 07:27:47;;;;;;;17.10;5.60;;;;;;;24.28;61.64;99401.07;1664463;85;21806;-76
2021/06/15 07:30:19;;;;;;;9.53;5.08;;;;;;;24.38;62.53;99399.39;1662464;85;21508;-69
2021/06/15 07:32:50;;;;;;;9.75;5.08;;;;;;;24.46;61.50;99398.69;1662097;84;21646;-77
2021/06/15 07:35:19;;;;;;;8.15;5.10;;;;;;;24.54;61.07;99401.01;1640363;85;21049;-73
2021/06/15 07:37:46;;;;;;;10.23;4.80;;;;;;;24.57;60.04;99397.17;1661391;85;21013;-73
2021/06/15 07:40:12;;;;;;;7.83;4.40;;;;;;;24.52;60.77;99394.99;1669352;85;21587;-72
2021/06/15 07:42:44;;;;;;;9.13;4.80;;;;;;;24.54;60.20;99399.60;1673167;85;21072;-71
2021/06/15 07:45:47;;;;;;;10.68;4.67;;;;;;;24.55;60.32;99389.92;1668574;85;21043;-71
2021/06/15 07:48:15;;;;;;;16.15;5.85;;;;;;;24.59;60.16;99398.33;1640718;85;21164;-71
2021/06/15 07:50:43;;;;;;;15.60;4.60;;;;;;;24.62;59.78;99387.63;1657069;84;21615;-72
2021/06/15 07:53:09;;;;;;;7.17;4.72;;;;;;;24.68;59.43;99392.98;1667784;85;21123;-71
2021/06/15 07:55:39;;;;;;;9.58;5.17;;;;;;;24.74;59.28;99390.52;1658347;85;21012;-71
2021/06/15 07:58:06;;;;;;;6.05;4.10;;;;;;;24.80;60.34;99384.59;1660531;85;21500;-70
2021/06/15 08:00:33;;;;;;;8.43;4.35;;;;;;;24.83;58.92;99385.78;1666997;85;21061;-72
2021/06/15 08:02:59;;;;;;;18.95;5.05;;;;;;;24.92;59.46;99388.12;1658612;84;21016;-72
2021/06/15 08:05:29;;;;;;;7.95;4.37;;;;;;;25.04;59.89;99386.75;1670957;85;21144;-72
2021/06/15 08:07:55;;;;;;;6.47;4.50;;;;;;;25.15;59.70;99387.39;1671137;84;21060;-73
2021/06/15 08:10:26;;;;;;;11.38;4.60;;;;;;;25.24;59.19;99384.05;1666843;85;21020;-74
2021/06/15 08:12:53;;;;;;;13.78;4.72;;;;;;;25.32;59.06;99377.69;1672848;85;21551;-71
2021/06/15 08:15:21;;;;;;;7.95;4.72;;;;;;;25.38;58.81;99373.79;1676509;85;21040;-71
2021/06/15 08:17:49;;;;;;;8.98;4.95;;;;;;;25.42;57.26;99375.92;1673596;84;21710;-71
2021/06/15 08:20:19;;;;;;;16.55;4.97;;;;;;;25.38;57.75;99375.20;1677899;85;21588;-71
2021/06/15 08:22:45;;;;;;;7.67;4.67;;;;;;;25.43;57.88;99369.08;1680304;84;21101;-70
2021/06/15 08:25:17;;;;;;;13.58;5.17;;;;;;;25.50;57.17;99364.72;1677902;84;21048;-72
2021/06/15 08:27:45;;;;;;;19.60;5.83;;;;;;;25.59;58.08;99366.22;1660604;84;21040;-70
2021/06/15 08:30:14;;;;;;;5.53;4.90;;;;;;;25.72;58.03;99370.06;1670456;84;21113;-71
2021/06/15 08:32:46;;;;;;;6.92;4.55;;;;;;;25.84;57.91;99361.59;1658823;86;21051;-70
2021/06/15 08:38:48;;;;;;;11.90;5.15;;;;;;;26.11;57.37;99359.91;1661305;83;21537;-74
2021/06/15 08:41:24;;;;;;;11.53;5.00;;;;;;;26.22;57.27;99355.48;1668559;84;21172;-73
2021/06/15 08:43:50;;;;;;;8.43;4.50;;;;;;;26.30;57.06;99347.66;1661817;85;21679;-71
2021/06/15 08:46:19;;;;;;;7.67;5.12;;;;;;;26.35;56.62;99346.58;1660795;85;21053;-73
2021/06/15 08:48:47;;;;;;;11.93;4.83;;;;;;;26.39;55.39;99347.93;1668274;85;21081;-73
2021/06/15 08:51:16;;;;;;;11.33;5.20;;;;;;;26.41;55.88;99347.49;1672251;85;21037;-70
2021/06/15 08:53:44;;;;;;;8.40;4.72;;;;;;;26.43;55.13;99345.81;1655214;84;21132;-73
2021/06/15 08:56:24;;;;;;;11.10;4.35;;;;;;;26.47;54.27;99347.16;1672487;85;21120;-71
2021/06/15 08:59:22;;;;;;;8.65;4.90;;;;;;;26.44;53.46;99343.16;1666773;85;21025;-73
2021/06/15 09:01:53;;;;;;;6.87;4.87;;;;;;;26.44;54.05;99341.75;1657852;85;21056;-72
2021/06/15 09:04:19;;;;;;;5.65;4.50;;;;;;;26.50;54.41;99342.05;1652986;85;21056;-72
2021/06/15 09:06:50;;;;;;;16.05;5.30;;;;;;;26.61;55.18;99336.19;1674563;85;21032;-74
2021/06/15 09:09:22;;;;;;;14.40;5.10;;;;;;;26.76;55.30;99335.88;1663652;84;21991;-75
2021/06/15 09:12:30;;;;;;;17.00;5.80;;;;;;;26.84;54.91;99336.70;1659069;85;21025;-71
2021/06/15 09:15:20;;;;;;;7.30;4.75;;;;;;;26.97;55.62;99334.61;1602429;88;22154;-72
2021/06/15 09:18:28;;;;;;;4.78;4.08;;;;;;;27.09;53.55;99335.36;1607025;88;21621;-72
2021/06/15 09:20:59;;;;;;;8.88;4.50;;;;;;;26.98;52.31;99331.34;1602266;88;21057;-72
2021/06/15 09:30:46;;;;;;;8.65;4.10;;;;;;;27.02;52.63;99334.70;1649080;86;21076;-72
2021/06/15 09:37:08;;;;;;;9.73;4.35;;;;;;;27.16;52.65;99328.73;1735287;81;21562;-71
2021/06/15 09:42:19;;;;;;;7.80;4.17;;;;;;;27.26;53.12;99315.58;1714668;81;21098;-73
2021/06/15 09:44:45;;;;;;;10.23;4.33;;;;;;;27.29;52.83;99317.55;1719614;81;21366;-74
2021/06/15 09:47:13;;;;;;;9.35;4.30;;;;;;;27.29;52.22;99319.57;1737268;81;21125;-74
2021/06/15 09:49:44;;;;;;;8.58;4.33;;;;;;;27.25;52.09;99311.17;1725941;82;21574;-72
2021/06/15 09:52:26;;;;;;;5.20;4.03;;;;;;;27.22;52.28;99305.80;1724037;82;22177;-73
2021/06/15 09:55:14;;;;;;;4.17;3.22;;;;;;;27.31;53.01;99302.97;1710276;82;21128;-73
2021/06/15 09:57:41;;;;;;;8.23;3.42;;;;;;;27.43;52.92;99312.14;1719635;82;21586;-74
2021/06/15 10:00:22;;;;;;;9.35;4.05;;;;;;;27.59;52.59;99303.47;1680731;84;21146;-73
2021/06/15 10:03:00;;;;;;;6.83;3.40;;;;;;;27.73;51.03;99305.17;1684666;84;21114;-74
2021/06/15 10:05:36;;;;;;;3.77;3.42;;;;;;;27.87;51.11;99309.66;1648952;84;21558;-75
2021/06/15 10:08:05;;;;;;;6.60;3.47;;;;;;;28.01;51.04;99314.76;1684421;84;21591;-73
2021/06/15 10:10:40;;;;;;;5.55;3.00;;;;;;;28.13;49.16;99313.22;1696757;83;21067;-73
2021/06/15 10:13:14;;;;;;;8.50;3.65;;;;;;;28.01;48.57;99303.44;1708964;83;21103;-70
2021/06/15 10:15:43;;;;;;;8.83;2.90;;;;;;;28.00;49.93;99304.05;1736801;81;21042;-73
2021/06/15 10:18:18;;;;;;;3.52;2.67;;;;;;;28.13;49.00;99299.06;1736102;81;21620;-71
2021/06/15 10:20:42;;;;;;;9.50;3.20;;;;;;;28.24;47.75;99300.16;1668757;83;21102;-74
2021/06/15 10:23:12;;;;;;;7.75;4.03;;;;;;;28.29;48.13;99296.78;1723772;81;20987;-74
2021/06/15 10:25:45;;;;;;;4.58;3.60;;;;;;;28.28;47.79;99297.42;1723636;81;20980;-74
2021/06/15 10:28:13;;;;;;;5.15;3.30;;;;;;;28.23;48.25;99295.14;1722960;81;20995;-74
2021/06/15 10:30:45;;;;;;;5.95;3.33;;;;;;;28.19;48.80;99289.58;1720616;81;22149;-73
2021/06/15 10:33:21;;;;;;;5.15;2.80;;;;;;;28.17;48.66;99294.89;1734958;81;21157;-74
2021/06/15 10:35:58;;;;;;;6.67;3.42;;;;;;;28.02;47.67;99296.52;1722531;83;20996;-76
2021/06/15 10:38:35;;;;;;;5.00;3.00;;;;;;;27.82;47.67;99291.80;1723144;81;21043;-73
2021/06/15 10:41:08;;;;;;;15.88;2.90;;;;;;;27.56;47.21;99290.22;1721340;83;21523;-73
2021/06/15 10:43:42;;;;;;;10.98;3.25;;;;;;;27.29;47.54;99295.53;1734523;81;21738;-74
2021/06/15 10:46:25;;;;;;;3.87;3.08;;;;;;;27.02;47.59;99293.73;1735022;81;21069;-74
2021/06/15 10:49:00;;;;;;;8.75;3.65;;;;;;;26.81;48.37;99292.98;1733498;81;21039;-73
2021/06/15 10:51:53;;;;;;;;;;;;;;;26.71;49.23;99287.75;1738986;81;21035;-74
2021/06/15 10:54:38;;;;;;;8.20;2.90;;;;;;;26.64;49.39;99290.73;1736686;81;20158;-74
2021/06/15 10:57:24;;;;;;;7.40;3.05;;;;;;;26.69;50.25;99276.09;1732209;81;21131;-74
2021/06/15 11:00:13;;;;;;;;;;;;;;;26.89;50.11;99278.06;1734989;81;21435;-75
2021/06/15 11:02:44;;;;;;;4.40;2.60;;;;;;;27.06;48.46;99276.08;1723173;81;20191;-73
2021/06/15 11:05:39;;;;;;;6.92;2.98;;;;;;;27.13;48.57;99266.02;1697826;83;21083;-73
2021/06/15 11:08:27;;;;;;;7.58;2.77;;;;;;;27.15;48.91;99266.38;1738883;81;21042;-72
2021/06/15 11:10:58;;;;;;;7.22;2.55;;;;;;;27.15;48.49;99270.63;1733869;81;21097;-73
2021/06/15 11:13:48;;;;;;;3.02;2.30;;;;;;;27.07;48.14;99269.98;1733890;81;20984;-74
2021/06/15 11:16:45;;;;;;;7.28;2.72;;;;;;;26.91;48.24;99267.92;1734224;81;21468;-74
2021/06/15 11:19:22;;;;;;;26.02;3.35;;;;;;;26.70;48.13;99270.00;1736885;81;21479;-75
2021/06/15 11:22:07;;;;;;;8.65;3.85;;;;;;;26.53;48.65;99266.34;1739362;81;21508;-73
2021/06/15 11:24:55;;;;;;;4.33;3.02;;;;;;;26.41;49.00;99255.09;1734085;81;21169;-73
2021/06/15 11:27:39;;;;;;;7.05;2.90;;;;;;;26.35;49.31;99256.23;1735369;81;21003;-73
2021/06/15 11:30:20;;;;;;;11.03;2.92;;;;;;;26.29;49.67;99240.22;1730079;81;22068;-74
2021/06/15 11:33:05;;;;;;;14.65;3.05;;;;;;;26.25;50.53;99241.70;1739064;81;21155;-73
2021/06/15 11:35:41;;;;;;;10.20;3.37;;;;;;;26.24;51.91;99245.13;1738681;81;21015;-74
2021/06/15 11:38:18;;;;;;;13.25;2.60;;;;;;;26.23;52.54;99236.49;1731657;81;21129;-73
2021/06/15 11:40:51;;;;;;;10.35;2.80;;;;;;;26.25;52.40;99229.77;1721128;83;21332;-72
2021/06/15 11:43:19;;;;;;;5.00;2.60;;;;;;;26.30;52.53;99224.86;1721452;81;21089;-73
2021/06/15 11:45:50;;;;;;;3.72;3.02;;;;;;;26.31;50.93;99215.95;1714648;81;21460;-74
2021/06/15 11:48:31;;;;;;;3.50;2.90;;;;;;;26.33;50.53;99214.10;1727155;81;36371;-73
2021/06/15 11:51:08;;;;;;;3.62;2.45;;;;;;;26.36;51.06;99209.83;1721737;82;21082;-74
2021/06/15 11:53:40;;;;;;;8.55;2.87;;;;;;;26.47;51.41;99197.50;1708244;83;21099;-71
2021/06/15 11:56:11;;;;;;;3.50;2.70;;;;;;;26.66;51.98;99190.82;1721690;83;20999;-74
2021/06/15 11:58:47;;;;;;;7.75;2.95;;;;;;;26.84;50.37;99188.36;1724573;81;20995;-73
2021/06/15 12:01:17;;;;;;;14.35;2.95;;;;;;;27.03;50.57;99197.83;1714731;81;21031;-73
2021/06/15 12:03:49;;;;;;;27.05;3.67;;;;;;;27.25;49.82;99193.04;1709676;83;21336;-72
2021/06/15 12:06:19;;;;;;;4.92;2.37;;;;;;;27.49;49.04;99187.17;1720897;83;21066;-72
2021/06/15 12:08:50;;;;;;;13.28;3.15;;;;;;;27.64;47.48;99188.37;1722507;83;21016;-72
2021/06/15 12:11:21;;;;;;;6.37;3.05;;;;;;;27.57;46.59;99195.02;1721849;82;21509;-73
2021/06/15 12:13:50;;;;;;;6.03;2.85;;;;;;;27.42;47.62;99190.98;1722016;82;21054;-73
2021/06/15 12:16:25;;;;;;;8.70;3.12;;;;;;;27.30;47.24;99186.85;1718721;83;21015;-71
2021/06/15 12:19:00;;;;;;;6.87;2.60;;;;;;;27.16;46.52;99184.58;1721963;83;20988;-72
2021/06/15 12:21:39;;;;;;;9.13;2.17;;;;;;;27.04;46.38;99176.83;1719966;82;21031;-72
2021/06/15 12:24:07;;;;;;;6.03;2.52;;;;;;;26.92;46.18;99179.08;1707332;83;21039;-73
2021/06/15 12:26:43;;;;;;;8.53;3.58;;;;;;;26.77;46.90;99180.05;1708844;83;21078;-72
2021/06/15 12:29:17;;;;;;;3.70;2.77;;;;;;;26.66;47.92;99178.11;1709623;83;21107;-72
2021/06/15 12:31:48;;;;;;;14.58;3.65;;;;;;;26.55;49.12;99173.51;1709010;83;20992;-72
2021/06/15 12:34:25;;;;;;;4.65;2.90;;;;;;;26.46;49.94;99170.51;1718390;82;21020;-72
2021/06/15 12:36:53;;;;;;;6.45;3.05;;;;;;;26.31;49.66;99162.92;1672681;85;21063;-72
2021/06/15 12:39:27;;;;;;;5.47;3.50;;;;;;;26.15;50.11;99157.44;1688750;85;21102;-73